Time;durP1;ratioP1;P1;durP2;ratioP2;P2;SDS_P1;SDS_P2;PMS_P1;PMS_P2;Temp;Humidity;BMP_temperature;BMP_pressure;BME280_temperature;BME280_humidity;BME280_pressure;Samples;Min_cycle;Max_cycle;Signal;HPM_P1;HPM_P2
2022/05/18 00:01:10;;;;;;;2.00;1.60;;;;;;;19.53;58.29;99358.44;4972421;28;41865;-80
2022/05/18 00:03:40;;;;;;;1.80;1.60;;;;;;;19.57;58.23;99373.28;4956424;28;41658;-77
2022/05/18 00:06:10;;;;;;;1.57;1.47;;;;;;;19.53;58.26;99379.94;4972724;28;42342;-78
2022/05/18 00:08:37;;;;;;;1.40;1.30;;;;;;;19.46;58.15;99374.22;4973868;28;41052;-75
2022/05/18 00:11:09;;;;;;;2.13;1.60;;;;;;;19.42;58.28;99380.84;4955290;28;41846;-82
2022/05/18 00:13:39;;;;;;;1.90;1.70;;;;;;;19.39;58.79;99383.84;4956399;28;41772;-82
2022/05/18 00:16:07;;;;;;;1.80;1.67;;;;;;;19.36;58.43;99381.41;4972175;28;41120;-80
2022/05/18 00:18:35;;;;;;;2.10;1.73;;;;;;;19.33;58.54;99379.84;4957077;28;38518;-79
2022/05/18 00:21:04;;;;;;;2.10;1.77;;;;;;;19.30;58.52;99387.34;4973535;28;42815;-79
2022/05/18 00:23:31;;;;;;;2.47;1.60;;;;;;;19.27;58.58;99390.31;4973170;28;43723;-79
2022/05/18 00:25:59;;;;;;;1.73;1.60;;;;;;;19.22;58.59;99388.03;4972606;28;41189;-81
2022/05/18 00:28:27;;;;;;;1.60;1.50;;;;;;;19.19;58.88;99385.63;4972985;28;39200;-76
2022/05/18 00:30:56;;;;;;;1.63;1.53;;;;;;;19.18;59.01;99383.06;4972723;28;42010;-81
2022/05/18 00:33:23;;;;;;;1.87;1.70;;;;;;;19.14;59.29;99387.03;4956925;28;42650;-76
2022/05/18 00:35:51;;;;;;;2.80;1.60;;;;;;;19.14;59.15;99387.03;4972567;28;41535;-79
2022/05/18 00:38:19;;;;;;;1.93;1.40;;;;;;;19.13;59.21;99386.19;4972658;28;39640;-82
2022/05/18 00:40:49;;;;;;;1.83;1.73;;;;;;;19.14;59.42;99381.66;4973445;28;41943;-81
2022/05/18 00:43:19;;;;;;;2.23;1.83;;;;;;;19.13;59.58;99374.59;4956542;28;43830;-78
2022/05/18 00:45:47;;;;;;;1.67;1.57;;;;;;;19.07;59.30;99370.59;4973491;28;42714;-78
2022/05/18 00:48:16;;;;;;;2.57;1.80;;;;;;;19.11;59.25;99376.56;4972025;28;41807;-81
2022/05/18 00:50:44;;;;;;;1.60;1.37;;;;;;;19.15;59.87;99378.00;4972045;28;41666;-79
2022/05/18 00:53:17;;;;;;;2.10;1.83;;;;;;;19.15;60.62;99373.47;4973082;28;42621;-75
2022/05/18 00:55:53;;;;;;;2.33;1.70;;;;;;;19.17;60.53;99370.63;4970525;28;42259;-80
2022/05/18 00:58:29;;;;;;;2.07;1.87;;;;;;;19.17;61.00;99370.63;4970281;28;39972;-80
2022/05/18 01:00:58;;;;;;;2.30;2.10;;;;;;;19.19;60.58;99379.41;4964485;28;41867;-75
2022/05/18 01:03:29;;;;;;;2.17;1.80;;;;;;;19.18;60.24;99381.22;4982679;28;43404;-76
2022/05/18 01:06:02;;;;;;;1.97;1.80;;;;;;;19.18;60.60;99375.84;4981596;28;42506;-77
2022/05/18 01:08:34;;;;;;;1.77;1.43;;;;;;;19.19;60.74;99368.66;4979117;28;40126;-77
2022/05/18 01:11:02;;;;;;;2.90;1.80;;;;;;;19.07;60.51;99345.59;4980450;28;42705;-76
2022/05/18 01:13:30;;;;;;;2.23;1.70;;;;;;;19.19;60.57;99369.50;4981437;28;42196;-78
2022/05/18 01:15:58;;;;;;;2.20;1.90;;;;;;;19.20;60.73;99370.34;4979025;28;42501;-78
2022/05/18 01:18:28;;;;;;;2.50;1.97;;;;;;;19.20;60.51;99370.34;4973597;28;39947;-84
2022/05/18 01:20:56;;;;;;;2.00;1.60;;;;;;;19.21;60.15;99378.28;4971928;28;42177;-87
2022/05/18 01:23:34;;;;;;;1.60;1.50;;;;;;;19.23;60.35;99384.34;4970965;28;42439;-77
2022/05/18 01:26:12;;;;;;;3.33;1.60;;;;;;;19.21;60.24;99380.97;4972049;28;41132;-79
2022/05/18 01:28:46;;;;;;;1.50;1.40;;;;;;;19.20;60.38;99381.09;4968427;28;39907;-80
2022/05/18 01:31:13;;;;;;;1.60;1.50;;;;;;;19.18;60.59;99383.91;4971007;28;40562;-79
2022/05/18 01:33:41;;;;;;;2.20;2.00;;;;;;;19.13;61.61;99374.59;4972738;28;43571;-81
2022/05/18 01:36:08;;;;;;;2.10;1.90;;;;;;;19.16;61.23;99379.69;4971128;28;43552;-82
2022/05/18 01:38:37;;;;;;;1.60;1.50;;;;;;;19.15;61.08;99384.22;4973188;28;40880;-75
2022/05/18 01:41:13;;;;;;;1.53;1.43;;;;;;;19.14;61.12;99393.25;4972450;28;41806;-79
2022/05/18 01:43:47;;;;;;;1.90;1.70;;;;;;;19.14;60.75;99393.25;4968790;28;43752;-76
2022/05/18 01:46:18;;;;;;;1.90;1.80;;;;;;;19.13;61.21;99396.06;4973377;28;42200;-84
2022/05/18 01:48:48;;;;;;;1.87;1.77;;;;;;;19.12;61.46;99395.22;4975703;28;39037;-76
2022/05/18 01:51:23;;;;;;;2.10;1.90;;;;;;;19.09;61.54;99389.25;4978584;28;43182;-74
2022/05/18 01:53:51;;;;;;;1.80;1.70;;;;;;;19.07;61.29;99383.19;4979819;28;44667;-79
2022/05/18 01:56:18;;;;;;;2.10;2.00;;;;;;;18.99;61.31;99378.50;4979490;28;41276;-77
2022/05/18 01:58:47;;;;;;;2.93;2.03;;;;;;;18.97;61.45;99370.59;4974051;28;40502;-76
2022/05/18 02:01:15;;;;;;;2.20;2.00;;;;;;;19.03;61.29;99379.94;4955832;28;41452;-82
2022/05/18 02:03:42;;;;;;;2.00;1.80;;;;;;;19.06;61.04;99385.00;4954810;28;43732;-83
2022/05/18 02:06:10;;;;;;;2.10;1.77;;;;;;;19.05;61.39;99387.81;4971063;28;42433;-78
2022/05/18 02:08:38;;;;;;;2.20;1.67;;;;;;;19.03;61.36;99377.25;4973061;28;40350;-81
2022/05/18 02:11:06;;;;;;;1.67;1.57;;;;;;;19.04;61.91;99378.91;4971369;28;40850;-74
2022/05/18 02:13:33;;;;;;;2.00;1.80;;;;;;;19.04;61.76;99380.78;4955378;28;44370;-77
2022/05/18 02:16:04;;;;;;;2.40;2.20;;;;;;;18.99;61.70;99384.72;4971271;28;42419;-81
2022/05/18 02:18:32;;;;;;;1.83;1.67;;;;;;;18.99;61.77;99384.72;4972015;28;38761;-79
2022/05/18 02:21:02;;;;;;;2.00;1.80;;;;;;;19.00;61.43;99380.19;4955687;28;40512;-80
2022/05/18 02:23:30;;;;;;;1.77;1.47;;;;;;;18.98;61.61;99382.16;4971750;28;43506;-79
2022/05/18 02:25:59;;;;;;;1.67;1.57;;;;;;;18.95;61.21;99385.97;4971142;28;43095;-82
2022/05/18 02:28:27;;;;;;;1.60;1.50;;;;;;;18.92;62.02;99383.53;4975413;28;40868;-82
2022/05/18 02:30:55;;;;;;;1.63;1.53;;;;;;;18.91;62.31;99384.56;4972492;28;41814;-78
2022/05/18 02:33:24;;;;;;;2.47;1.80;;;;;;;18.86;62.51;99385.94;4954987;28;41934;-81
2022/05/18 02:35:51;;;;;;;2.30;2.10;;;;;;;18.80;63.08;99384.63;4973457;28;42936;-79
2022/05/18 02:38:19;;;;;;;2.20;2.00;;;;;;;18.76;62.97;99383.22;4957553;28;39285;-78
2022/05/18 02:40:47;;;;;;;2.27;2.07;;;;;;;18.67;62.90;99372.44;4973342;28;42194;-82
2022/05/18 02:43:14;;;;;;;1.80;1.63;;;;;;;18.69;62.79;99386.56;4974589;28;43757;-81
2022/05/18 02:45:42;;;;;;;2.30;2.10;;;;;;;18.67;62.92;99389.38;4976588;28;41635;-82
2022/05/18 02:48:11;;;;;;;2.10;1.70;;;;;;;18.65;62.91;99394.03;4959474;28;38760;-77
2022/05/18 02:50:40;;;;;;;2.33;1.87;;;;;;;18.60;63.05;99393.59;4976651;28;42138;-80
2022/05/18 02:53:08;;;;;;;1.63;1.53;;;;;;;18.55;62.85;99401.13;4976103;28;42533;-84
2022/05/18 02:58:20;;;;;;;2.87;1.90;;;;;;;18.45;62.74;99405.59;4957678;28;40231;-80
2022/05/18 03:00:48;;;;;;;2.00;1.60;;;;;;;18.43;63.08;99407.56;4974271;28;41874;-83
2022/05/18 03:03:16;;;;;;;1.70;1.60;;;;;;;18.38;62.73;99420.53;4974533;28;43371;-80
2022/05/18 03:05:45;;;;;;;1.63;1.43;;;;;;;18.30;63.08;99419.34;4956662;28;41543;-82
2022/05/18 03:08:12;;;;;;;2.10;1.47;;;;;;;18.25;63.33;99416.22;4973137;28;40219;-78
2022/05/18 03:10:41;;;;;;;1.63;1.53;;;;;;;18.17;63.20;99410.66;4956751;28;42048;-78
2022/05/18 03:13:10;;;;;;;2.10;1.90;;;;;;;18.07;63.29;99406.19;4972999;28;43746;-80
2022/05/18 03:15:37;;;;;;;2.17;1.97;;;;;;;18.05;63.52;99419.72;4956406;28;41223;-80
2022/05/18 03:18:06;;;;;;;1.97;1.67;;;;;;;18.00;63.74;99411.22;4974214;28;41862;-78
2022/05/18 03:23:35;;;;;;;2.20;1.73;;;;;;;17.97;64.81;99411.47;4957612;28;44312;-75
2022/05/18 03:26:05;;;;;;;1.93;1.77;;;;;;;17.97;64.49;99416.84;4972957;28;41862;-75
2022/05/18 03:28:33;;;;;;;2.27;2.07;;;;;;;17.95;64.98;99408.94;4974918;28;39961;-77
2022/05/18 03:31:00;;;;;;;2.10;1.90;;;;;;;18.01;64.40;99418.28;4972680;28;42551;-81
2022/05/18 03:33:28;;;;;;;1.40;1.30;;;;;;;17.73;64.33;99382.25;4973985;28;42740;-81
2022/05/18 03:35:56;;;;;;;1.80;1.60;;;;;;;17.95;64.56;99416.13;4973831;28;43431;-74
2022/05/18 03:38:25;;;;;;;1.93;1.70;;;;;;;17.97;64.67;99427.56;4974054;28;41001;-78
2022/05/18 03:40:53;;;;;;;1.90;1.70;;;;;;;17.93;64.50;99431.47;4956286;28;40601;-76
2022/05/18 03:43:21;;;;;;;2.17;1.90;;;;;;;17.84;65.10;99426.88;4972892;28;42660;-76
2022/05/18 03:45:49;;;;;;;2.13;1.70;;;;;;;17.75;64.88;99424.97;4972802;28;42210;-78
2022/05/18 03:48:19;;;;;;;2.20;2.00;;;;;;;17.79;65.34;99439.84;4973249;28;39833;-73
2022/05/18 03:50:49;;;;;;;1.67;1.57;;;;;;;17.74;65.50;99432.16;4971735;28;42541;-77
2022/05/18 03:53:17;;;;;;;2.77;1.87;;;;;;;17.72;65.34;99433.25;4972467;28;42215;-79
2022/05/18 03:55:46;;;;;;;2.80;1.70;;;;;;;17.69;65.57;99436.19;4972164;28;44095;-78
2022/05/18 03:58:15;;;;;;;2.17;1.87;;;;;;;17.66;65.89;99455.22;4956279;28;39780;-80
2022/05/18 04:00:44;;;;;;;2.57;1.90;;;;;;;17.61;66.27;99452.88;4955802;28;40883;-85
2022/05/18 04:03:13;;;;;;;2.37;1.40;;;;;;;17.56;65.95;99455.91;4956238;28;43368;-81
2022/05/18 04:05:41;;;;;;;2.20;2.00;;;;;;;17.43;66.01;99444.50;4955858;28;41210;-82
2022/05/18 04:08:11;;;;;;;2.03;1.77;;;;;;;17.52;66.24;99462.50;4974786;28;41671;-80
2022/05/18 04:10:40;;;;;;;2.20;2.00;;;;;;;17.51;65.88;99463.50;4972807;28;41714;-79
2022/05/18 04:13:13;;;;;;;1.70;1.60;;;;;;;17.52;65.69;99473.22;4956911;28;44649;-86
2022/05/18 04:15:41;;;;;;;1.40;1.30;;;;;;;17.53;65.82;99476.75;4956658;28;41651;-77
2022/05/18 04:18:08;;;;;;;2.10;1.63;;;;;;;17.54;65.33;99479.31;4973231;28;39975;-77
2022/05/18 04:20:36;;;;;;;1.97;1.60;;;;;;;17.57;65.62;99479.03;4972657;28;41639;-79
2022/05/18 04:23:04;;;;;;;2.13;1.93;;;;;;;17.56;65.90;99471.97;4972960;28;42551;-79
2022/05/18 04:25:32;;;;;;;3.10;1.90;;;;;;;17.66;65.94;99477.50;4972413;28;42656;-83
2022/05/18 04:27:59;;;;;;;2.03;1.93;;;;;;;17.68;65.84;99478.19;4957078;28;40485;-81
2022/05/18 04:30:29;;;;;;;2.00;1.90;;;;;;;17.69;66.13;99471.00;4972464;28;43077;-77
2022/05/18 04:32:58;;;;;;;2.90;1.93;;;;;;;17.83;65.90;99484.97;4972582;28;42915;-80
2022/05/18 04:35:28;;;;;;;2.10;1.90;;;;;;;17.94;65.42;99486.78;4972291;28;42278;-82
2022/05/18 04:37:55;;;;;;;1.90;1.80;;;;;;;18.05;65.37;99485.91;4971693;28;40652;-74
2022/05/18 04:40:23;;;;;;;3.60;1.67;;;;;;;18.15;65.21;99493.06;4971912;28;41586;-78
2022/05/18 04:42:52;;;;;;;1.57;1.43;;;;;;;18.33;65.37;99484.41;4972892;28;43687;-82
2022/05/18 04:45:21;;;;;;;2.00;1.80;;;;;;;18.53;65.28;99489.81;4955203;28;41713;-81
2022/05/18 04:47:51;;;;;;;2.10;1.93;;;;;;;18.70;65.32;99484.84;4955508;28;39388;-80
2022/05/18 04:50:20;;;;;;;2.37;2.17;;;;;;;18.99;65.04;99505.53;4971579;28;42771;-77
2022/05/18 04:52:48;;;;;;;2.60;2.40;;;;;;;19.19;64.65;99500.22;4955026;28;42819;-81
2022/05/18 04:55:16;;;;;;;2.27;2.07;;;;;;;19.37;64.67;99517.44;4971048;28;41468;-80
2022/05/18 04:57:44;;;;;;;3.10;2.30;;;;;;;19.51;64.46;99509.03;4971181;28;40928;-74
2022/05/18 05:00:14;;;;;;;4.30;2.60;;;;;;;19.61;64.55;99515.28;4954727;28;42054;-80
2022/05/18 05:02:42;;;;;;;2.57;2.23;;;;;;;19.64;64.56;99517.69;4955144;28;42137;-81
2022/05/18 05:05:14;;;;;;;2.60;2.00;;;;;;;19.66;64.15;99528.28;4971062;28;40792;-81
2022/05/18 05:07:41;;;;;;;2.20;2.00;;;;;;;19.65;64.25;99527.47;4955038;28;39803;-74
2022/05/18 05:10:10;;;;;;;2.30;2.10;;;;;;;19.68;64.77;99526.31;4970833;28;40993;-77
2022/05/18 05:12:37;;;;;;;2.77;2.47;;;;;;;19.62;64.39;99506.22;4972370;28;42796;-77
2022/05/18 05:15:07;;;;;;;2.30;2.20;;;;;;;19.81;64.55;99528.75;4970761;28;43162;-78
2022/05/18 05:17:35;;;;;;;2.50;2.27;;;;;;;19.86;64.02;99530.06;4971120;28;39528;-80
2022/05/18 05:20:03;;;;;;;3.10;2.27;;;;;;;19.90;63.96;99530.63;4970748;28;41635;-84
2022/05/18 05:22:32;;;;;;;2.40;2.20;;;;;;;19.87;64.02;99531.75;4971118;28;41717;-78
2022/05/18 05:25:00;;;;;;;2.30;1.90;;;;;;;19.93;63.78;99538.41;4955329;28;43262;-76
2022/05/18 05:27:28;;;;;;;2.40;1.83;;;;;;;19.97;63.92;99539.84;4971987;28;39307;-79
2022/05/18 05:29:56;;;;;;;2.10;1.90;;;;;;;19.93;64.27;99546.47;4971664;28;41847;-78
2022/05/18 05:32:25;;;;;;;4.47;2.43;;;;;;;19.90;64.28;99541.38;4955619;28;42812;-78
2022/05/18 05:34:53;;;;;;;2.80;2.17;;;;;;;19.86;64.03;99550.72;4971962;28;42277;-79
2022/05/18 05:37:21;;;;;;;2.73;2.40;;;;;;;19.84;63.97;99542.78;4955963;28;40316;-80
2022/05/18 05:39:49;;;;;;;1.90;1.80;;;;;;;19.78;64.21;99537.13;4972096;28;40647;-78
2022/05/18 05:42:17;;;;;;;2.77;2.40;;;;;;;19.96;63.96;99551.56;4971618;28;44542;-81
2022/05/18 05:44:45;;;;;;;4.93;2.33;;;;;;;20.08;63.78;99555.84;4955164;28;41211;-77
2022/05/18 05:47:12;;;;;;;2.50;2.30;;;;;;;20.10;64.13;99537.75;4955746;28;39879;-77
2022/05/18 05:49:42;;;;;;;3.30;2.50;;;;;;;20.31;63.59;99557.28;4972253;28;41793;-79
2022/05/18 05:52:11;;;;;;;2.70;2.30;;;;;;;20.41;63.49;99560.84;4955040;28;41560;-76
2022/05/18 05:54:38;;;;;;;4.30;2.67;;;;;;;20.56;63.02;99555.06;4970169;28;42706;-77
2022/05/18 05:57:07;;;;;;;3.30;2.63;;;;;;;20.72;63.03;99555.34;4969916;28;40020;-75
2022/05/18 05:59:37;;;;;;;3.50;3.20;;;;;;;20.78;62.29;99538.59;4970861;28;41865;-75
2022/05/18 06:02:11;;;;;;;3.30;2.80;;;;;;;21.12;61.76;99560.53;4969738;28;42882;-75
2022/05/18 06:04:40;;;;;;;4.60;2.73;;;;;;;21.28;61.86;99566.16;4963599;28;42906;-82
2022/05/18 06:07:08;;;;;;;3.40;3.00;;;;;;;21.41;61.54;99569.38;4970159;28;40012;-77
2022/05/18 06:09:36;;;;;;;3.20;2.90;;;;;;;21.51;60.90;99564.78;4980620;28;41708;-81
2022/05/18 06:12:04;;;;;;;4.93;3.50;;;;;;;21.66;60.92;99573.25;4993338;28;41091;-78
2022/05/18 06:14:33;;;;;;;3.87;3.17;;;;;;;21.83;60.12;99577.88;4992448;28;42428;-80
2022/05/18 06:17:01;;;;;;;3.77;2.77;;;;;;;21.93;60.28;99569.72;4976927;28;38874;-77
2022/05/18 06:19:31;;;;;;;3.90;3.50;;;;;;;22.03;59.81;99575.09;4976486;28;41686;-80
2022/05/18 06:21:59;;;;;;;4.87;3.00;;;;;;;21.94;59.61;99532.81;4993340;28;44488;-79
2022/05/18 06:24:27;;;;;;;4.13;3.10;;;;;;;22.20;59.53;99550.00;4992838;28;41585;-82
2022/05/18 06:26:57;;;;;;;4.10;3.73;;;;;;;22.49;58.63;99588.41;4994332;28;41645;-77
2022/05/18 06:29:24;;;;;;;4.27;3.60;;;;;;;22.56;58.53;99572.44;4992558;28;42356;-78
2022/05/18 06:31:54;;;;;;;4.40;3.30;;;;;;;22.72;58.98;99574.44;4993166;28;44386;-84
2022/05/18 06:34:22;;;;;;;4.17;3.20;;;;;;;22.77;58.47;99567.59;4976130;28;42024;-86
2022/05/18 06:36:50;;;;;;;5.00;3.43;;;;;;;22.92;57.85;99573.28;4994699;28;41709;-85
2022/05/18 06:39:19;;;;;;;5.47;3.70;;;;;;;23.10;57.77;99581.38;4993045;28;41776;-86
2022/05/18 06:41:47;;;;;;;3.97;3.67;;;;;;;23.25;56.60;99567.09;4993533;28;43731;-85
2022/05/18 06:44:16;;;;;;;3.63;3.33;;;;;;;23.67;56.21;99590.69;4994036;28;43234;-84
2022/05/18 06:46:47;;;;;;;5.93;3.93;;;;;;;23.98;53.82;99599.94;4994709;28;39091;-88
2022/05/18 06:49:18;;;;;;;3.77;3.20;;;;;;;24.16;51.76;99590.88;4977679;28;42572;-88
2022/05/18 06:51:47;;;;;;;3.97;3.53;;;;;;;24.44;50.07;99626.72;4977759;28;42026;-87
2022/05/18 06:54:16;;;;;;;4.40;3.70;;;;;;;24.47;49.35;99613.69;4977315;28;41588;-82
2022/05/18 06:56:44;;;;;;;4.13;3.40;;;;;;;24.67;49.30;99628.63;4995223;28;40111;-88
2022/05/18 06:59:14;;;;;;;4.00;3.53;;;;;;;24.92;48.67;99623.22;4993445;28;41972;-86
2022/05/18 07:01:42;;;;;;;4.07;3.23;;;;;;;25.19;48.25;99622.91;4994137;28;42818;-82
2022/05/18 07:04:11;;;;;;;3.90;3.20;;;;;;;25.29;48.42;99610.03;4998516;28;40746;-85
2022/05/18 07:06:43;;;;;;;3.10;2.90;;;;;;;25.46;47.41;99626.28;4999168;28;40136;-79
2022/05/18 07:09:13;;;;;;;3.33;3.03;;;;;;;25.64;47.69;99621.50;4971338;28;41797;-82
2022/05/18 07:11:42;;;;;;;3.80;3.13;;;;;;;26.07;46.71;99634.59;4952786;28;43307;-78
2022/05/18 07:14:09;;;;;;;4.60;3.47;;;;;;;26.72;45.04;99638.84;4962664;28;41139;-81
2022/05/18 07:16:37;;;;;;;3.80;3.27;;;;;;;27.17;44.84;99633.44;4993364;28;39956;-84
2022/05/18 07:19:05;;;;;;;4.10;3.50;;;;;;;27.53;43.26;99639.06;4986925;28;41818;-83
2022/05/18 07:21:33;;;;;;;3.80;3.50;;;;;;;27.99;42.73;99644.34;4957078;28;42868;-79
2022/05/18 07:24:03;;;;;;;4.87;3.90;;;;;;;28.57;41.38;99653.50;4978399;28;42243;-80
2022/05/18 07:26:32;;;;;;;3.87;3.57;;;;;;;29.16;41.51;99665.09;4992869;28;40083;-79
2022/05/18 07:29:00;;;;;;;4.00;3.17;;;;;;;29.75;40.13;99655.72;4994052;28;41873;-80
2022/05/18 07:31:29;;;;;;;5.57;3.57;;;;;;;30.16;38.43;99655.78;4993366;28;42716;-82
2022/05/18 07:33:57;;;;;;;4.27;3.00;;;;;;;30.30;38.38;99663.81;4992598;28;43806;-81
2022/05/18 07:36:26;;;;;;;3.57;3.27;;;;;;;30.36;38.38;99676.69;4977178;28;41129;-78
2022/05/18 07:38:55;;;;;;;3.70;3.13;;;;;;;30.55;37.38;99679.72;4976474;28;41572;-77
2022/05/18 07:41:26;;;;;;;3.27;2.97;;;;;;;30.92;36.33;99679.19;4976589;28;41867;-78
2022/05/18 07:43:54;;;;;;;3.53;3.23;;;;;;;31.19;35.41;99652.75;4989696;28;43108;-78
2022/05/18 07:46:22;;;;;;;2.80;2.60;;;;;;;31.77;34.38;99697.63;4993140;28;39953;-79
2022/05/18 07:48:53;;;;;;;3.63;3.30;;;;;;;31.89;35.25;99697.03;4992102;28;41827;-82
2022/05/18 07:51:24;;;;;;;3.27;2.97;;;;;;;31.76;35.16;99679.53;4991912;28;42876;-85
2022/05/18 07:53:53;;;;;;;3.43;2.73;;;;;;;31.66;34.44;99692.81;4991414;28;41865;-82
2022/05/18 07:56:21;;;;;;;3.10;2.80;;;;;;;31.60;34.98;99690.06;4991604;28;40531;-79
2022/05/18 07:58:53;;;;;;;3.87;2.97;;;;;;;31.33;35.72;99687.31;4975486;28;42361;-83
2022/05/18 08:01:21;;;;;;;3.43;3.03;;;;;;;31.19;35.73;99652.75;4991168;28;43759;-79
2022/05/18 08:03:51;;;;;;;3.70;3.10;;;;;;;31.62;34.02;99693.44;4992100;28;43198;-77
2022/05/18 08:06:23;;;;;;;3.80;3.33;;;;;;;31.68;34.48;99679.75;4992980;28;39409;-82
2022/05/18 08:08:54;;;;;;;3.63;3.33;;;;;;;31.92;34.79;99694.69;4992729;28;41624;-78
2022/05/18 08:17:00;;;;;;;3.10;2.83;;;;;;;32.73;33.79;99688.78;4991746;28;40862;-76
2022/05/18 08:19:29;;;;;;;3.13;2.90;;;;;;;33.31;31.98;99694.97;4988207;28;42785;-80
2022/05/18 08:22:02;;;;;;;3.13;2.43;;;;;;;33.76;32.82;99700.34;4989182;28;42755;-77
2022/05/18 08:24:32;;;;;;;2.60;2.40;;;;;;;34.20;32.05;99711.13;4974385;28;41338;-75
2022/05/18 08:27:04;;;;;;;2.90;2.70;;;;;;;34.86;30.58;99718.63;4989723;28;40985;-80
2022/05/18 08:29:37;;;;;;;4.00;2.63;;;;;;;35.22;29.46;99723.19;4974358;28;41543;-78
2022/05/18 08:32:07;;;;;;;2.53;2.33;;;;;;;35.65;29.61;99713.84;4987544;28;42839;-77
2022/05/18 08:34:38;;;;;;;2.97;2.70;;;;;;;36.06;29.98;99701.06;4990433;28;43421;-79
2022/05/18 08:37:29;;;;;;;2.50;2.30;;;;;;;36.54;28.26;99709.88;4989443;28;40341;-77
2022/05/18 08:39:57;;;;;;;3.40;3.10;;;;;;;37.60;26.14;99724.91;4988857;28;40452;-80
2022/05/18 08:42:27;;;;;;;2.80;2.50;;;;;;;39.20;24.99;99745.22;4973474;28;42679;-76
2022/05/18 08:44:59;;;;;;;2.95;2.45;;;;;;;40.43;23.26;99742.41;4957530;28;42647;-82
2022/05/18 08:47:41;;;;;;;2.38;2.17;;;;;;;40.85;22.94;99742.31;4975146;28;40253;-76
2022/05/18 08:50:13;;;;;;;2.70;2.17;;;;;;;40.69;23.88;99741.41;4956405;28;41009;-76
2022/05/18 08:52:59;;;;;;;2.65;2.42;;;;;;;39.45;23.42;99730.78;4988317;28;43757;-78
2022/05/18 08:55:46;;;;;;;2.53;2.33;;;;;;;38.55;24.61;99743.34;4973974;28;42186;-74
2022/05/18 08:58:25;;;;;;;3.67;3.15;;;;;;;37.95;24.74;99733.00;4989478;28;40858;-78
2022/05/18 09:01:11;;;;;;;4.50;2.90;;;;;;;37.25;26.39;99722.38;4989676;28;41553;-79
2022/05/18 09:03:44;;;;;;;2.53;2.30;;;;;;;36.62;27.40;99695.69;4957617;28;41656;-76
2022/05/18 09:06:25;;;;;;;2.70;2.50;;;;;;;36.39;27.31;99720.59;4988639;28;43282;-83
2022/05/18 09:11:51;;;;;;;3.43;2.70;;;;;;;35.68;28.01;99705.09;4989448;28;42417;-75
2022/05/18 09:14:24;;;;;;;3.27;2.97;;;;;;;35.50;28.29;99702.41;4956045;28;41969;-75
2022/05/18 09:17:11;;;;;;;3.40;2.93;;;;;;;35.54;28.70;99703.63;4956994;28;41456;-77
2022/05/18 09:19:56;;;;;;;3.03;2.83;;;;;;;35.56;28.58;99693.22;4972337;28;38912;-80
2022/05/18 09:22:41;;;;;;;5.03;2.87;;;;;;;35.45;28.66;99696.81;4986695;28;41916;-79
2022/05/18 09:25:22;;;;;;;3.30;2.97;;;;;;;35.07;28.53;99692.47;4987652;28;42737;-78
2022/05/18 09:28:10;;;;;;;2.97;2.67;;;;;;;34.96;28.94;99684.19;4987041;28;43309;-81
2022/05/18 09:30:54;;;;;;;3.53;3.07;;;;;;;35.34;29.21;99681.94;4972192;28;39341;-80
2022/05/18 09:33:52;;;;;;;7.03;3.37;;;;;;;35.51;28.38;99687.56;4970336;28;40545;-76
2022/05/18 09:36:57;;;;;;;2.70;2.50;;;;;;;35.63;28.80;99681.00;4951794;28;43915;-78
2022/05/18 09:39:30;;;;;;;3.40;3.10;;;;;;;35.76;27.73;99696.50;4949714;28;41790;-80
2022/05/18 09:42:03;;;;;;;2.50;2.30;;;;;;;36.15;27.12;99688.56;4987474;28;40016;-82
2022/05/18 09:44:40;;;;;;;2.93;2.40;;;;;;;36.72;26.55;99688.75;4990514;28;40803;-79
2022/05/18 09:47:14;;;;;;;3.10;2.53;;;;;;;37.69;25.46;99708.81;4990584;28;42784;-80
2022/05/18 09:49:48;;;;;;;2.53;1.80;;;;;;;37.92;26.04;99703.09;4991567;28;42516;-79
2022/05/18 09:52:22;;;;;;;2.40;2.20;;;;;;;37.18;26.42;99660.94;4977448;28;38899;-82
2022/05/18 09:54:55;;;;;;;2.80;2.30;;;;;;;37.09;27.17;99689.19;4990676;28;42738;-76
2022/05/18 09:57:30;;;;;;;2.67;2.47;;;;;;;37.27;26.76;99698.09;4990241;28;43241;-79
2022/05/18 10:00:01;;;;;;;2.70;2.50;;;;;;;37.13;26.27;99682.88;4992240;28;42638;-77
2022/05/18 10:08:16;;;;;;;2.50;2.30;;;;;;;37.98;25.86;99688.22;4984139;28;41789;-81
2022/05/18 10:10:50;;;;;;;2.30;2.03;;;;;;;38.78;25.03;99695.97;4954567;28;42107;-79
2022/05/18 10:13:26;;;;;;;2.55;2.10;;;;;;;39.47;22.76;99706.41;4939512;28;39959;-80
2022/05/18 10:16:04;;;;;;;2.03;1.83;;;;;;;40.27;22.01;99710.06;4954534;28;40781;-80
2022/05/18 10:18:41;;;;;;;2.22;1.88;;;;;;;41.05;22.38;99700.69;4968956;28;42856;-79
2022/05/18 10:21:25;;;;;;;2.70;2.17;;;;;;;41.44;22.17;99695.47;4958694;28;41158;-78
2022/05/18 10:24:03;;;;;;;2.38;2.17;;;;;;;41.88;21.24;99711.63;4976760;28;40160;-78
2022/05/18 10:26:36;;;;;;;3.47;2.35;;;;;;;41.78;20.25;99720.00;4991234;28;42770;-79
2022/05/18 10:29:09;;;;;;;2.58;2.10;;;;;;;41.18;21.79;99699.34;4992586;28;41800;-82
2022/05/18 10:31:42;;;;;;;1.88;1.70;;;;;;;40.97;22.77;99686.50;4993851;28;42293;-76
2022/05/18 10:34:24;;;;;;;1.80;1.70;;;;;;;40.79;23.02;99691.47;4993553;28;40804;-81
2022/05/18 10:36:58;;;;;;;1.83;1.73;;;;;;;41.25;20.78;99705.50;4976712;28;41048;-83
2022/05/18 10:39:39;;;;;;;2.08;1.60;;;;;;;42.17;20.75;99700.72;4968453;28;42734;-81
2022/05/18 10:42:21;;;;;;;2.42;1.83;;;;;;;42.10;21.25;99689.06;4957640;28;41330;-81
2022/05/18 10:44:52;;;;;;;2.20;1.98;;;;;;;41.19;22.34;99678.78;4967952;28;39977;-81
2022/05/18 10:47:31;;;;;;;2.15;1.95;;;;;;;40.51;23.02;99678.84;4976787;28;42137;-79
2022/05/18 10:50:29;;;;;;;1.75;1.65;;;;;;;40.19;21.27;99684.47;4992562;28;43686;-75
2022/05/18 10:53:00;;;;;;;2.40;2.17;;;;;;;40.17;22.36;99672.00;4958209;28;42362;-77
2022/05/18 10:55:30;;;;;;;2.00;1.80;;;;;;;40.28;22.38;99678.44;4990821;28;40596;-76
2022/05/18 10:58:00;;;;;;;1.88;1.77;;;;;;;40.20;20.76;99672.28;4991902;28;43264;-76
2022/05/18 11:00:36;;;;;;;2.63;2.08;;;;;;;39.96;21.30;99686.84;4992485;28;42720;-77
2022/05/18 11:03:15;;;;;;;1.63;1.52;;;;;;;39.64;21.00;99678.56;4992031;28;43505;-75
2022/05/18 11:05:46;;;;;;;2.13;1.75;;;;;;;39.28;21.86;99658.00;4991598;28;40302;-80
2022/05/18 11:08:17;;;;;;;2.22;2.03;;;;;;;39.06;22.86;99653.38;4990550;28;41853;-80
2022/05/18 11:10:53;;;;;;;4.18;2.10;;;;;;;38.74;22.13;99661.59;4957467;28;44288;-78
2022/05/18 11:13:33;;;;;;;2.25;2.05;;;;;;;38.37;23.35;99643.94;4974481;28;42390;-78
2022/05/18 11:16:11;;;;;;;2.00;1.90;;;;;;;38.30;24.44;99638.63;4952898;28;40668;-79
2022/05/18 11:18:45;;;;;;;2.85;1.83;;;;;;;38.11;24.41;99606.81;4940425;28;41920;-79
2022/05/18 11:21:19;;;;;;;2.25;1.80;;;;;;;38.05;26.22;99627.19;4992131;28;42715;-80
2022/05/18 11:23:56;;;;;;;1.98;1.85;;;;;;;37.85;24.29;99627.72;4992319;28;43589;-79
2022/05/18 11:26:34;;;;;;;2.43;1.80;;;;;;;37.83;24.19;99645.69;4991937;28;40865;-78
2022/05/18 11:29:14;;;;;;;2.47;2.03;;;;;;;38.03;23.75;99635.75;4992282;28;40241;-76
2022/05/18 11:32:01;;;;;;;2.20;1.95;;;;;;;38.35;24.33;99627.59;4990073;28;43175;-76
2022/05/18 11:34:37;;;;;;;2.50;1.77;;;;;;;38.80;23.76;99623.72;4991623;28;41338;-78
2022/05/18 11:37:32;;;;;;;4.20;2.00;;;;;;;38.99;22.77;99638.88;4978301;28;38843;-78
2022/05/18 11:40:11;;;;;;;2.70;1.95;;;;;;;39.20;22.05;99628.81;4978562;28;40831;-78
2022/05/18 11:42:51;;;;;;;2.05;1.92;;;;;;;39.70;21.51;99633.94;4995755;28;45268;-76
2022/05/18 11:45:27;;;;;;;1.88;1.70;;;;;;;40.67;21.01;99637.25;4998703;28;42512;-76
2022/05/18 11:48:06;;;;;;;2.00;1.90;;;;;;;41.86;20.60;99644.28;4999628;28;39534;-78
2022/05/18 11:50:45;;;;;;;2.13;1.90;;;;;;;42.79;19.04;99658.47;4998488;28;42109;-76
2022/05/18 11:53:27;;;;;;;1.83;1.73;;;;;;;43.81;18.30;99654.91;5000176;28;41219;-78
2022/05/18 11:56:10;;;;;;;1.90;1.77;;;;;;;44.70;16.49;99664.47;4998094;28;43297;-78
2022/05/18 11:58:54;;;;;;;2.13;1.45;;;;;;;45.47;16.45;99651.03;4993735;28;40109;-76
2022/05/18 12:01:31;;;;;;;1.85;1.75;;;;;;;46.46;17.12;99640.19;4997102;28;40773;-78
2022/05/18 12:04:21;;;;;;;2.28;2.00;;;;;;;47.06;16.37;99645.56;4990369;28;42629;-79
2022/05/18 12:07:06;;;;;;;3.00;1.88;;;;;;;47.40;15.63;99655.41;4991593;28;43337;-81
2022/05/18 12:09:49;;;;;;;1.95;1.55;;;;;;;47.72;16.03;99637.44;4974840;28;40124;-80
2022/05/18 12:12:30;;;;;;;2.42;2.22;;;;;;;48.20;15.20;99644.00;4989365;28;42683;-77
2022/05/18 12:15:05;;;;;;;3.88;1.85;;;;;;;48.37;15.02;99636.75;4976483;28;42854;-77